createdAt,value
2019-04-05T00:00:35.098Z,20.12
2019-04-05T00:03:38.512Z,19.55
2019-04-05T00:06:41.897Z,19.45
2019-04-05T00:09:45.090Z,29.65
2019-04-05T00:12:48.290Z,20.48
2019-04-05T00:15:51.382Z,20.97
2019-04-05T00:18:54.719Z,18.52
2019-04-05T00:21:58.079Z,19.30
2019-04-05T00:25:01.178Z,24.70
2019-04-05T00:28:04.463Z,22.73
2019-04-05T00:31:07.767Z,23.85
2019-04-05T00:34:11.094Z,21.45
2019-04-05T00:37:14.360Z,19.60
2019-04-05T00:40:17.562Z,20.62
2019-04-05T00:43:20.645Z,28.10
2019-04-05T00:46:23.755Z,23.02
2019-04-05T00:49:26.967Z,27.58
2019-04-05T00:52:30.130Z,24.70
2019-04-05T00:55:33.465Z,22.82
2019-04-05T00:58:36.630Z,19.32
2019-04-05T01:01:39.954Z,21.75
2019-04-05T01:04:43.157Z,20.25
2019-04-05T01:07:46.418Z,22.27
2019-04-05T01:10:49.643Z,21.97
2019-04-05T01:13:53.206Z,20.45
2019-04-05T01:16:56.858Z,23.62
2019-04-05T01:20:02.210Z,24.55
2019-04-05T01:23:05.583Z,22.77
2019-04-05T01:26:09.310Z,19.57
2019-04-05T01:29:12.882Z,33.00
2019-04-05T01:32:16.079Z,21.62
2019-04-05T01:35:19.412Z,20.55
2019-04-05T01:38:22.710Z,19.82
2019-04-05T01:41:26.101Z,20.10
2019-04-05T01:44:29.814Z,20.65
2019-04-05T01:47:33.985Z,23.30
2019-04-05T01:50:38.451Z,23.10
2019-04-05T01:53:41.720Z,25.62
2019-04-05T01:56:44.850Z,23.75
2019-04-05T01:59:48.107Z,22.45
2019-04-05T02:02:51.527Z,23.05
2019-04-05T02:05:54.829Z,24.98
2019-04-05T02:08:58.000Z,28.45
2019-04-05T02:12:01.229Z,25.62
2019-04-05T02:15:05.123Z,29.67
2019-04-05T02:18:08.408Z,22.65
2019-04-05T02:21:11.735Z,23.40
2019-04-05T02:24:14.925Z,26.15
2019-04-05T02:27:18.046Z,23.38
2019-04-05T02:30:21.588Z,30.60
2019-04-05T02:33:25.819Z,25.12
2019-04-05T02:36:29.354Z,25.37
2019-04-05T02:39:32.397Z,22.52
2019-04-05T02:42:36.526Z,27.48
2019-04-05T02:45:40.922Z,23.47
2019-04-05T02:48:46.807Z,24.92
2019-04-05T02:51:50.781Z,25.00
2019-04-05T02:54:55.970Z,29.02
2019-04-05T02:58:00.491Z,24.57
2019-04-05T03:01:03.795Z,23.00
2019-04-05T03:04:07.030Z,28.30
2019-04-05T03:07:10.119Z,23.73
2019-04-05T03:10:50.667Z,28.32
2019-04-05T03:13:56.339Z,28.57
2019-04-05T03:17:00.362Z,24.35
2019-04-05T03:20:04.280Z,32.10
2019-04-05T03:23:07.669Z,33.02
2019-04-05T03:26:14.326Z,27.73
2019-04-05T03:29:17.906Z,33.63
2019-04-05T03:32:21.651Z,28.90
2019-04-05T03:35:25.510Z,31.68
2019-04-05T03:38:28.981Z,25.95
2019-04-05T03:41:32.412Z,33.18
2019-04-05T03:44:35.875Z,33.40
2019-04-05T03:47:39.006Z,34.20
2019-04-05T03:50:45.056Z,34.18
2019-04-05T03:53:47.209Z,29.52
2019-04-05T03:56:50.547Z,33.85
2019-04-05T03:59:54.018Z,34.30
2019-04-05T04:02:57.303Z,31.52
2019-04-05T04:06:01.951Z,32.25
2019-04-05T04:09:06.206Z,35.98
2019-04-05T04:12:09.383Z,28.62
2019-04-05T04:15:13.921Z,34.78
2019-04-05T04:18:18.095Z,32.55
2019-04-05T04:21:29.276Z,40.60
2019-04-05T04:24:32.361Z,33.23
2019-04-05T04:27:37.538Z,35.88
2019-04-05T04:30:40.695Z,38.90
2019-04-05T04:33:43.895Z,37.75
2019-04-05T04:36:46.992Z,34.43
2019-04-05T04:39:50.282Z,36.55
2019-04-05T04:42:53.510Z,35.60
2019-04-05T04:45:56.673Z,39.85
2019-04-05T04:49:00.482Z,39.88
2019-04-05T04:52:04.023Z,37.17
2019-04-05T04:55:07.593Z,40.85
2019-04-05T04:58:10.997Z,33.58
2019-04-05T05:01:14.281Z,35.83
2019-04-05T05:04:17.581Z,43.42
2019-04-05T05:07:20.823Z,43.85
2019-04-05T05:10:24.178Z,51.28
2019-04-05T05:13:27.489Z,52.00
2019-04-05T05:16:30.666Z,39.80
2019-04-05T05:19:34.193Z,41.70
2019-04-05T05:22:37.626Z,40.25
2019-04-05T05:25:40.977Z,53.30
2019-04-05T05:28:44.318Z,42.03
2019-04-05T05:31:47.565Z,53.70
2019-04-05T05:35:01.301Z,46.08
2019-04-05T05:37:56.150Z,44.93
2019-04-05T05:40:59.431Z,48.08
2019-04-05T05:44:02.742Z,44.93
2019-04-05T05:47:05.902Z,39.63
2019-04-05T05:50:10.549Z,38.92
2019-04-05T05:53:15.176Z,44.10
2019-04-05T05:56:18.563Z,37.73
2019-04-05T05:59:21.686Z,44.03
2019-04-05T06:02:24.845Z,37.53
2019-04-05T06:05:28.077Z,43.08
2019-04-05T06:08:31.179Z,37.03
2019-04-05T06:11:34.329Z,40.38
2019-04-05T06:14:37.563Z,43.63
2019-04-05T06:17:41.677Z,37.35
2019-04-05T06:20:44.941Z,33.13
2019-04-05T06:23:48.477Z,41.90
2019-04-05T06:26:51.533Z,37.93
2019-04-05T06:29:54.830Z,36.38
2019-04-05T06:32:58.985Z,39.15
2019-04-05T06:36:02.153Z,35.43
2019-04-05T06:39:06.810Z,40.45
2019-04-05T06:42:09.960Z,41.42
2019-04-05T06:45:13.266Z,39.03
2019-04-05T06:48:19.544Z,40.28
2019-04-05T06:51:21.709Z,35.78
2019-04-05T06:54:24.907Z,35.40
2019-04-05T06:57:28.194Z,36.25
2019-04-05T07:00:31.399Z,39.75
2019-04-05T07:03:34.696Z,35.00
2019-04-05T07:06:37.991Z,32.13
2019-04-05T07:09:41.082Z,34.50
2019-04-05T07:12:44.220Z,36.38
2019-04-05T07:15:47.369Z,34.18
2019-04-05T07:18:50.562Z,41.58
2019-04-05T07:21:53.749Z,34.10
2019-04-05T07:24:57.058Z,37.67
2019-04-05T07:28:02.233Z,30.57
2019-04-05T07:31:05.598Z,38.58
2019-04-05T07:34:08.749Z,32.90
2019-04-05T07:37:11.777Z,34.25
2019-04-05T07:40:15.481Z,37.53
2019-04-05T07:43:18.618Z,36.05
2019-04-05T07:46:21.674Z,38.28
2019-04-05T07:49:24.974Z,36.83
2019-04-05T07:52:28.176Z,31.07
2019-04-05T07:55:31.362Z,35.23
2019-04-05T07:58:34.485Z,31.42
2019-04-05T08:01:37.542Z,32.98
2019-04-05T08:04:40.782Z,38.23
2019-04-05T08:07:47.553Z,29.07
2019-04-05T08:10:51.224Z,28.85
2019-04-05T08:13:56.755Z,34.00
2019-04-05T08:17:00.078Z,33.55
2019-04-05T08:20:03.417Z,36.17
2019-04-05T08:23:07.600Z,33.98
2019-04-05T08:26:10.834Z,29.40
2019-04-05T08:29:15.874Z,27.22
2019-04-05T08:32:19.033Z,28.38
2019-04-05T08:35:22.255Z,28.55
2019-04-05T08:38:25.521Z,22.65
2019-04-05T08:41:28.619Z,30.05
2019-04-05T08:44:31.843Z,24.65
2019-04-05T08:47:34.998Z,26.90
2019-04-05T08:50:38.338Z,26.90
2019-04-05T08:53:41.198Z,26.30
2019-04-05T08:56:44.346Z,28.62
2019-04-05T08:59:47.582Z,26.42
2019-04-05T09:02:51.006Z,26.55
2019-04-05T09:05:54.290Z,22.22
2019-04-05T09:08:59.062Z,28.12
2019-04-05T09:12:02.278Z,30.50
2019-04-05T09:15:05.707Z,29.70
2019-04-05T09:18:08.774Z,24.45
2019-04-05T09:21:12.823Z,23.95
2019-04-05T09:24:15.970Z,22.80
2019-04-05T09:27:19.110Z,24.43
2019-04-05T09:30:22.254Z,25.80
2019-04-05T09:33:25.466Z,31.80
2019-04-05T09:36:28.749Z,22.27
2019-04-05T09:39:31.965Z,31.55
2019-04-05T09:42:35.250Z,25.23
2019-04-05T09:45:38.506Z,21.50
2019-04-05T09:48:41.934Z,26.00
2019-04-05T09:51:46.158Z,22.87
2019-04-05T09:54:49.398Z,27.25
2019-04-05T09:57:52.562Z,24.45
2019-04-05T10:00:55.787Z,19.42
2019-04-05T10:03:58.945Z,26.52
2019-04-05T10:07:02.048Z,25.43
2019-04-05T10:10:05.377Z,20.35
2019-04-05T10:13:09.859Z,20.37
2019-04-05T10:16:13.559Z,21.90
2019-04-05T10:19:16.657Z,28.47
2019-04-05T10:22:19.749Z,24.35
2019-04-05T10:25:22.882Z,28.98
2019-04-05T10:28:26.134Z,37.85
2019-04-05T10:31:29.338Z,32.53
2019-04-05T10:34:32.530Z,39.27
2019-04-05T10:37:35.728Z,34.27
2019-04-05T10:40:38.862Z,34.35
2019-04-05T10:43:41.910Z,50.43
2019-04-05T10:46:46.404Z,37.33
2019-04-05T10:49:57.097Z,38.85
2019-04-05T10:52:54.665Z,49.42
2019-04-05T10:55:57.766Z,44.40
2019-04-05T10:59:01.154Z,47.10
2019-04-05T11:02:04.685Z,56.95
2019-04-05T11:05:08.058Z,54.30
2019-04-05T11:08:11.275Z,55.52
2019-04-05T11:11:14.557Z,53.55
2019-04-05T11:14:17.850Z,51.13
2019-04-05T11:17:21.049Z,58.65
2019-04-05T11:20:24.285Z,62.55
2019-04-05T11:23:27.438Z,65.12
2019-04-05T11:26:32.382Z,60.92
2019-04-05T11:29:35.561Z,65.70
2019-04-05T11:32:39.064Z,66.97
2019-04-05T11:35:42.656Z,70.65
2019-04-05T11:38:49.885Z,70.08
2019-04-05T11:41:52.447Z,65.80
2019-04-05T11:44:57.562Z,70.35
2019-04-05T11:48:02.698Z,70.55
2019-04-05T11:51:05.864Z,67.17
2019-04-05T11:54:09.014Z,70.83
2019-04-05T11:57:12.270Z,59.63
2019-04-05T12:00:21.125Z,67.58
2019-04-05T12:03:24.746Z,62.83
2019-04-05T12:06:28.014Z,60.92
2019-04-05T12:09:31.239Z,65.50
2019-04-05T12:12:34.371Z,69.80
2019-04-05T12:15:37.533Z,60.85
2019-04-05T12:18:40.730Z,66.17
2019-04-05T12:21:44.164Z,66.55
2019-04-05T12:24:47.759Z,68.22
2019-04-05T12:28:05.212Z,68.02
2019-04-05T12:30:57.720Z,67.92
2019-04-05T12:34:00.898Z,67.12
2019-04-05T12:37:04.235Z,71.30
2019-04-05T12:40:10.159Z,62.67
2019-04-05T12:43:14.353Z,70.75
2019-04-05T12:46:17.565Z,71.35
2019-04-05T12:49:20.869Z,69.80
2019-04-05T12:52:27.404Z,69.95
2019-04-05T12:55:29.094Z,70.95
2019-04-05T12:58:32.936Z,72.65
2019-04-05T13:01:36.313Z,71.17
2019-04-05T13:04:39.712Z,76.82
2019-04-05T13:07:42.955Z,72.53
2019-04-05T13:10:46.137Z,73.72
2019-04-05T13:13:49.230Z,67.90
2019-04-05T13:16:52.494Z,74.45
2019-04-05T13:19:55.688Z,73.70
2019-04-05T13:23:02.487Z,79.07
2019-04-05T13:26:04.018Z,71.77
2019-04-05T13:29:07.223Z,74.25
2019-04-05T13:32:10.314Z,71.82
2019-04-05T13:35:13.502Z,71.57
2019-04-05T13:38:16.742Z,77.62
2019-04-05T13:41:19.905Z,81.80
2019-04-05T13:44:23.090Z,74.40
2019-04-05T13:47:26.378Z,71.95
2019-04-05T13:50:29.485Z,85.70
2019-04-05T13:53:32.806Z,77.97
2019-04-05T13:56:35.983Z,78.83
2019-04-05T13:59:39.173Z,76.02
2019-04-05T14:02:42.368Z,76.70
2019-04-05T14:05:45.573Z,67.40
2019-04-05T14:08:49.445Z,72.30
2019-04-05T14:11:52.568Z,76.20
2019-04-05T14:14:55.754Z,75.10
2019-04-05T14:17:58.950Z,74.65
2019-04-05T14:21:02.266Z,73.97
2019-04-05T14:24:05.449Z,75.67
2019-04-05T14:27:08.641Z,70.92
2019-04-05T14:30:13.681Z,66.07
2019-04-05T14:33:17.074Z,75.40
2019-04-05T14:36:20.379Z,70.87
2019-04-05T14:39:23.575Z,69.17
2019-04-05T14:42:29.458Z,74.58
2019-04-05T14:45:31.705Z,68.78
2019-04-05T14:48:34.925Z,68.83
2019-04-05T14:51:38.041Z,71.85
2019-04-05T14:54:43.246Z,70.10
2019-04-05T14:57:46.470Z,62.48
2019-04-05T15:00:49.808Z,63.75
2019-04-05T15:03:53.203Z,65.55
2019-04-05T15:06:57.474Z,65.60
2019-04-05T15:10:03.587Z,62.50
2019-04-05T15:13:05.917Z,65.17
2019-04-05T15:16:11.682Z,69.15
2019-04-05T15:19:13.973Z,54.93
2019-04-05T15:22:17.030Z,60.65
2019-04-05T15:25:21.809Z,62.40
2019-04-05T15:28:25.345Z,62.17
2019-04-05T15:31:28.566Z,62.67
2019-04-05T15:34:31.833Z,62.00
2019-04-05T15:37:37.342Z,64.37
2019-04-05T15:40:40.137Z,59.65
2019-04-05T15:43:43.692Z,61.25
2019-04-05T15:46:46.893Z,57.53
2019-04-05T15:49:51.859Z,59.77
2019-04-05T15:52:55.226Z,57.75
2019-04-05T15:55:58.463Z,55.58
2019-04-05T15:59:04.610Z,59.15
2019-04-05T16:02:06.670Z,55.10
2019-04-05T16:05:10.298Z,57.05
2019-04-05T16:08:16.530Z,58.95
2019-04-05T16:11:19.763Z,57.48
2019-04-05T16:14:23.121Z,57.80
2019-04-05T16:17:26.473Z,62.50
2019-04-05T16:20:29.661Z,63.42
2019-04-05T16:23:32.913Z,58.38
2019-04-05T16:26:36.152Z,61.50
2019-04-05T16:29:39.409Z,58.48
2019-04-05T16:32:42.817Z,59.48
2019-04-05T16:35:46.256Z,58.42
2019-04-05T16:38:49.411Z,58.68
2019-04-05T16:41:52.522Z,59.55
2019-04-05T16:44:55.789Z,60.60
2019-04-05T16:47:59.185Z,56.73
2019-04-05T16:51:02.425Z,56.70
2019-04-05T16:54:05.730Z,67.65
2019-04-05T16:57:09.199Z,57.08
2019-04-05T17:00:13.093Z,58.00
2019-04-05T17:03:16.417Z,59.42
2019-04-05T17:06:19.952Z,61.95
2019-04-05T17:09:23.299Z,65.80
2019-04-05T17:12:26.492Z,58.30
2019-04-05T17:15:29.721Z,65.47
2019-04-05T17:18:34.835Z,62.45
2019-04-05T17:21:38.125Z,63.10
2019-04-05T17:24:41.345Z,60.60
2019-04-05T17:27:44.526Z,55.83
2019-04-05T17:30:47.856Z,59.67
2019-04-05T17:33:51.115Z,57.80
2019-04-05T17:36:54.214Z,55.43
2019-04-05T17:39:57.608Z,63.05
2019-04-05T17:43:00.701Z,52.23
2019-04-05T17:46:04.129Z,63.70
2019-04-05T17:49:08.454Z,56.50
2019-04-05T17:52:11.709Z,56.92
2019-04-05T17:55:14.922Z,69.25
2019-04-05T17:58:18.717Z,54.98
2019-04-05T18:01:30.931Z,54.65
2019-04-05T18:04:34.118Z,53.73
2019-04-05T18:07:37.309Z,59.38
2019-04-05T18:10:40.418Z,59.23
2019-04-05T18:13:43.610Z,55.25
2019-04-05T18:17:20.393Z,58.98
2019-04-05T18:20:23.737Z,58.08
2019-04-05T18:23:26.927Z,61.53
2019-04-05T18:26:30.110Z,60.63
2019-04-05T18:29:33.273Z,58.73
2019-04-05T18:32:37.509Z,57.95
2019-04-05T18:35:40.688Z,60.98
2019-04-05T18:38:43.922Z,57.73
2019-04-05T18:41:47.313Z,66.60
2019-04-05T18:44:50.374Z,65.40
2019-04-05T18:47:53.606Z,60.48
2019-04-05T18:50:56.760Z,56.30
2019-04-05T18:53:59.961Z,59.53
2019-04-05T18:57:03.210Z,65.92
2019-04-05T19:00:06.758Z,62.95
2019-04-05T19:03:10.025Z,56.55
2019-04-05T19:06:13.290Z,65.52
2019-04-05T19:09:17.615Z,63.73
2019-04-05T19:12:20.814Z,66.50
2019-04-05T19:15:23.906Z,58.98
2019-04-05T19:18:27.070Z,58.98
2019-04-05T19:21:31.482Z,62.95
2019-04-05T19:24:35.606Z,62.93
2019-04-05T19:27:50.070Z,65.55
2019-04-05T19:49:23.893Z,60.63
2019-04-05T19:52:27.270Z,61.50
2019-04-05T19:55:30.290Z,60.80
2019-04-05T19:58:33.415Z,63.35
2019-04-05T20:01:36.768Z,60.00
2019-04-05T20:04:40.178Z,60.63
2019-04-05T20:07:43.306Z,60.83
2019-04-05T20:10:46.458Z,64.27
2019-04-05T20:13:49.715Z,60.03
2019-04-05T20:16:52.959Z,58.30
2019-04-05T20:19:56.165Z,59.38
2019-04-05T20:22:59.816Z,67.87
2019-04-05T20:26:05.383Z,63.80
2019-04-05T20:29:08.716Z,65.60
2019-04-05T20:32:11.893Z,61.63
2019-04-05T20:35:15.193Z,66.22
2019-04-05T20:38:19.453Z,60.10
2019-04-05T20:41:22.814Z,64.60
2019-04-05T20:44:26.014Z,65.45
2019-04-05T20:47:29.105Z,60.60
2019-04-05T20:50:32.396Z,69.58
2019-04-05T20:53:35.217Z,73.02
2019-04-05T20:56:38.462Z,73.95
2019-04-05T20:59:41.649Z,74.77
2019-04-05T21:02:44.952Z,69.67
2019-04-05T21:05:48.250Z,76.57
2019-04-05T21:09:10.505Z,77.53
2019-04-05T21:12:13.894Z,87.10
2019-04-05T21:15:17.689Z,84.05
2019-04-05T21:18:21.137Z,88.60
2019-04-05T21:21:24.397Z,74.42
2019-04-05T21:24:35.987Z,77.85
2019-04-05T21:27:34.137Z,72.27
2019-04-05T21:30:37.463Z,71.10
2019-04-05T21:33:41.718Z,75.65
2019-04-05T21:36:44.874Z,76.90
2019-04-05T21:39:47.971Z,73.85
2019-04-05T21:42:51.186Z,80.03
2019-04-05T21:45:54.505Z,66.17
2019-04-05T21:49:07.198Z,76.25
2019-04-05T21:52:10.482Z,75.25
2019-04-05T22:13:06.770Z,79.22
2019-04-05T22:16:10.062Z,72.47
2019-04-05T22:19:13.363Z,73.28
2019-04-05T22:22:16.417Z,72.60
2019-04-05T22:25:20.182Z,72.92
2019-04-05T22:28:23.317Z,70.87
2019-04-05T22:31:26.450Z,76.02
2019-04-05T22:34:29.653Z,74.00
2019-04-05T22:37:32.820Z,79.12
2019-04-05T22:40:37.175Z,73.92
2019-04-05T22:43:40.343Z,85.05
2019-04-05T22:46:44.579Z,88.27
2019-04-05T22:49:47.833Z,80.75
2019-04-05T22:52:52.110Z,78.70
2019-04-05T22:55:55.209Z,80.97
2019-04-05T22:58:58.450Z,87.33
2019-04-05T23:02:25.120Z,81.90
2019-04-05T23:05:28.222Z,79.22
2019-04-05T23:08:31.378Z,77.30
2019-04-05T23:11:34.618Z,79.62
2019-04-05T23:14:37.809Z,91.32
2019-04-05T23:17:41.068Z,77.27
2019-04-05T23:20:44.203Z,76.70
2019-04-05T23:23:47.362Z,71.90
2019-04-05T23:26:50.491Z,77.35
2019-04-05T23:29:53.942Z,73.35
2019-04-05T23:32:57.141Z,67.03
2019-04-05T23:36:00.481Z,70.08
2019-04-05T23:39:04.831Z,66.37
2019-04-05T23:42:08.306Z,71.37
2019-04-05T23:45:12.831Z,63.33
2019-04-05T23:48:15.991Z,69.47
2019-04-05T23:51:19.220Z,61.70
2019-04-05T23:54:22.298Z,63.28
2019-04-05T23:57:25.475Z,59.60
